createdAt,value
2018-11-13T07:42:39.052Z,72.803
2018-11-13T07:42:55.405Z,67.839
2018-11-13T07:43:11.766Z,67.054
2018-11-13T07:43:28.154Z,66.756
2018-11-13T07:43:44.589Z,66.761
2018-11-13T07:44:00.959Z,66.895
2018-11-13T07:44:17.345Z,67.04
2018-11-13T07:44:33.708Z,67.195
2018-11-13T07:44:50.091Z,67.427
2018-11-13T07:45:06.481Z,67.573
2018-11-13T07:45:22.865Z,67.783
2018-11-13T07:45:39.259Z,67.922
2018-11-13T07:45:55.613Z,68.025
2018-11-13T07:46:11.957Z,68.099
2018-11-13T07:46:28.426Z,68.24
2018-11-13T07:46:45.267Z,68.271
2018-11-13T07:47:02.590Z,68.333
2018-11-13T07:47:19.501Z,68.41
2018-11-13T07:47:38.243Z,68.433
2018-11-13T07:47:56.713Z,68.441
2018-11-13T07:48:13.687Z,68.507
2018-11-13T07:48:30.062Z,68.538
2018-11-13T07:48:46.437Z,68.516
2018-11-13T07:49:02.826Z,69.064
2018-11-13T07:49:19.200Z,68.937
2018-11-13T07:49:35.553Z,68.765
2018-11-13T07:49:51.913Z,68.745
2018-11-13T07:50:08.270Z,68.703
2018-11-13T07:50:24.679Z,68.854
2018-11-13T07:50:41.029Z,68.771
2018-11-13T07:50:57.541Z,68.781
2018-11-13T07:51:14.416Z,68.741
2018-11-13T07:51:31.285Z,68.754
2018-11-13T07:51:47.651Z,68.765
2018-11-13T07:52:04.037Z,68.754
2018-11-13T07:52:20.457Z,68.821
2018-11-13T07:52:36.841Z,68.789
2018-11-13T07:52:53.485Z,68.821
2018-11-13T07:53:09.875Z,68.91
2018-11-13T07:53:26.251Z,68.856
2018-11-13T07:53:42.794Z,68.856
2018-11-13T07:53:59.758Z,68.9
2018-11-13T07:54:16.647Z,68.945
2018-11-13T07:54:33.029Z,68.914
2018-11-13T07:54:49.469Z,69.111
2018-11-13T07:55:05.882Z,69.014
2018-11-13T07:55:22.252Z,69.049
2018-11-13T07:55:38.583Z,69.06
2018-11-13T07:55:54.965Z,69.16
2018-11-13T07:56:11.345Z,69.042
2018-11-13T07:56:27.719Z,69.047
2018-11-13T07:56:44.062Z,68.983
2018-11-13T07:57:00.468Z,69.061
2018-11-13T07:57:16.831Z,69.084
2018-11-13T07:57:33.222Z,69.031
2018-11-13T07:57:49.855Z,69.043
2018-11-13T07:58:06.498Z,69.056
2018-11-13T07:58:22.961Z,69.046
2018-11-13T07:58:39.512Z,69.133
2018-11-13T07:58:55.905Z,69.17
2018-11-13T07:59:12.282Z,69.193
2018-11-13T07:59:28.618Z,69.292
2018-11-13T07:59:44.965Z,69.152
2018-11-13T08:00:01.443Z,69.187
2018-11-13T08:00:17.813Z,69.154
2018-11-13T08:00:34.249Z,69.189
2018-11-13T08:00:50.680Z,69.234
2018-11-13T08:01:07.189Z,69.269
2018-11-13T08:01:23.742Z,69.269
2018-11-13T08:01:40.093Z,69.368
2018-11-13T08:01:56.473Z,69.185
2018-11-13T08:02:12.827Z,69.239
2018-11-13T08:02:29.188Z,69.296
2018-11-13T08:02:45.554Z,69.33
2018-11-13T08:03:01.968Z,69.409
2018-11-13T08:03:18.829Z,69.27
2018-11-13T08:03:35.462Z,69.261
2018-11-13T08:03:51.924Z,69.283
2018-11-13T08:04:08.304Z,69.428
2018-11-13T08:04:24.727Z,69.243
2018-11-13T08:04:41.107Z,69.233
2018-11-13T08:04:57.485Z,69.257
2018-11-13T08:05:13.896Z,69.3
2018-11-13T08:05:30.430Z,69.268
2018-11-13T08:05:47.174Z,69.333
2018-11-13T08:06:03.876Z,69.355
2018-11-13T08:06:20.721Z,69.4
2018-11-13T08:06:37.527Z,69.479
2018-11-13T08:06:54.204Z,69.381
2018-11-13T08:07:10.667Z,69.426
2018-11-13T08:07:27.128Z,69.351
2018-11-13T08:07:43.476Z,69.439
2018-11-13T08:07:59.846Z,69.343
2018-11-13T08:08:16.247Z,69.345
2018-11-13T08:08:32.886Z,69.314
2018-11-13T08:08:49.255Z,69.348
2018-11-13T08:09:05.625Z,69.358
2018-11-13T08:09:22.122Z,69.318
2018-11-13T08:09:38.668Z,69.296
2018-11-13T08:09:55.022Z,69.319
2018-11-13T08:10:11.388Z,69.288
2018-11-13T08:10:27.784Z,69.28
2018-11-13T08:10:44.232Z,69.357
2018-11-13T08:11:00.645Z,69.26
2018-11-13T08:11:17.041Z,69.359
2018-11-13T08:11:33.413Z,69.263
2018-11-13T08:11:49.793Z,69.255
2018-11-13T08:12:06.175Z,69.246
2018-11-13T08:12:22.547Z,69.235
2018-11-13T08:12:39.124Z,69.236
2018-11-13T08:12:56.406Z,69.249
2018-11-13T08:13:14.094Z,69.237
2018-11-13T08:13:31.221Z,69.231
2018-11-13T08:13:48.372Z,69.188
2018-11-13T08:14:04.749Z,69.222
2018-11-13T08:14:21.112Z,69.244
2018-11-13T08:14:37.484Z,69.245
2018-11-13T08:14:53.840Z,69.213
2018-11-13T08:15:10.200Z,69.193
2018-11-13T08:15:26.566Z,69.227
2018-11-13T08:15:43.203Z,69.195
2018-11-13T08:15:59.817Z,69.22
2018-11-13T08:16:16.219Z,69.188
2018-11-13T08:16:32.791Z,69.156
2018-11-13T08:16:49.427Z,69.18
2018-11-13T08:17:05.797Z,69.157
2018-11-13T08:17:22.228Z,69.19
2018-11-13T08:17:38.578Z,69.17
2018-11-13T08:17:54.915Z,69.173
2018-11-13T08:18:11.315Z,69.142
2018-11-13T08:18:27.940Z,69.152
2018-11-13T08:18:44.711Z,69.11
2018-11-13T08:19:01.539Z,69.11
2018-11-13T08:19:17.912Z,69.122
2018-11-13T08:19:34.264Z,69.157
2018-11-13T08:19:50.616Z,69.136
2018-11-13T08:20:06.960Z,69.15
2018-11-13T08:20:23.328Z,69.194
2018-11-13T08:20:39.717Z,69.129
2018-11-13T08:20:56.250Z,69.174
2018-11-13T08:21:13.087Z,69.142
2018-11-13T08:21:29.801Z,69.108
2018-11-13T08:21:46.162Z,69.121
2018-11-13T08:22:02.684Z,69.08
2018-11-13T08:22:19.905Z,69.061
2018-11-13T08:22:36.810Z,69.051
2018-11-13T08:22:53.188Z,69.043
2018-11-13T08:23:09.578Z,69.033
2018-11-13T08:23:25.980Z,69.024
2018-11-13T08:23:42.352Z,69.046
2018-11-13T08:23:58.733Z,69.057
2018-11-13T08:24:15.380Z,69.059
2018-11-13T08:24:31.750Z,69.049
2018-11-13T08:24:48.146Z,69.049
2018-11-13T08:25:04.660Z,69.072
2018-11-13T08:25:21.634Z,69.052
2018-11-13T08:25:38.608Z,69.052
2018-11-13T08:25:55.170Z,69.021
2018-11-13T08:26:11.747Z,69.033
2018-11-13T08:26:28.542Z,69.065
2018-11-13T08:26:44.916Z,69.044
2018-11-13T08:27:01.657Z,69.013
2018-11-13T08:27:18.499Z,69.003
2018-11-13T08:27:34.952Z,68.982
2018-11-13T08:27:51.598Z,68.985
2018-11-13T08:28:08.607Z,68.933
2018-11-13T08:28:25.538Z,68.958
2018-11-13T08:28:42.473Z,68.956
2018-11-13T08:28:59.787Z,68.914
2018-11-13T08:29:17.439Z,68.936
2018-11-13T08:29:34.378Z,68.916
2018-11-13T08:29:51.002Z,68.904
2018-11-13T08:30:07.368Z,68.917
2018-11-13T08:30:23.744Z,68.917
2018-11-13T08:30:40.138Z,68.938
2018-11-13T08:30:56.535Z,68.961
2018-11-13T08:31:12.881Z,68.938
2018-11-13T08:31:29.426Z,68.952
2018-11-13T08:31:46.052Z,68.909
2018-11-13T08:32:02.450Z,68.941
2018-11-13T08:32:18.810Z,68.924
2018-11-13T08:32:35.190Z,68.91
2018-11-13T08:32:51.558Z,68.944
2018-11-13T08:33:08.019Z,68.947
2018-11-13T08:33:24.527Z,68.916
2018-11-13T08:33:40.894Z,68.916
2018-11-13T08:33:57.277Z,68.918
2018-11-13T08:34:13.646Z,68.939
2018-11-13T08:34:30.283Z,68.963
2018-11-13T08:34:46.794Z,68.952
2018-11-13T08:35:03.848Z,68.976
2018-11-13T08:35:20.669Z,69.008
2018-11-13T08:35:37.169Z,68.977
2018-11-13T08:35:53.664Z,68.9
2018-11-13T08:36:10.056Z,68.966
2018-11-13T08:36:26.469Z,68.935
2018-11-13T08:36:42.831Z,68.967
2018-11-13T08:36:59.227Z,68.967
2018-11-13T08:37:15.593Z,68.967
2018-11-13T08:37:31.950Z,68.935
2018-11-13T08:37:48.307Z,68.958
2018-11-13T08:38:04.682Z,68.947
2018-11-13T08:38:21.034Z,68.981
2018-11-13T08:38:37.423Z,68.982
2018-11-13T08:38:53.801Z,68.962
2018-11-13T08:39:10.186Z,68.93
2018-11-13T08:39:26.556Z,68.931
2018-11-13T08:39:43.203Z,68.941
2018-11-13T08:39:59.608Z,68.911
2018-11-13T08:40:15.967Z,68.922
2018-11-13T08:40:32.364Z,68.922
2018-11-13T08:40:48.720Z,68.934
2018-11-13T08:41:05.064Z,68.914
2018-11-13T08:41:21.417Z,68.884
2018-11-13T08:41:37.785Z,68.892
2018-11-13T08:41:54.231Z,68.892
2018-11-13T08:42:10.615Z,68.85
2018-11-13T08:42:26.958Z,68.841
2018-11-13T08:42:44.273Z,68.841
2018-11-13T08:43:00.615Z,68.841
2018-11-13T08:43:17.244Z,68.862
2018-11-13T08:43:33.598Z,68.884
2018-11-13T08:43:50.199Z,68.895
2018-11-13T08:44:06.999Z,68.917
2018-11-13T08:44:23.589Z,68.886
2018-11-13T08:44:39.926Z,68.853
2018-11-13T08:44:56.526Z,68.844
2018-11-13T08:45:12.895Z,68.854
2018-11-13T08:45:29.261Z,68.865
2018-11-13T08:45:45.641Z,68.908
2018-11-13T08:46:01.996Z,68.876
2018-11-13T08:46:18.397Z,68.801
2018-11-13T08:46:34.808Z,68.813
2018-11-13T08:46:51.391Z,68.815
2018-11-13T08:47:07.773Z,68.816
2018-11-13T08:47:24.139Z,68.826
2018-11-13T08:47:40.494Z,68.837
2018-11-13T08:47:56.852Z,68.793
2018-11-13T08:48:13.219Z,68.764
2018-11-13T08:48:29.568Z,68.742
2018-11-13T08:48:45.918Z,68.72
2018-11-13T08:49:02.270Z,68.743
2018-11-13T08:49:18.906Z,68.787
2018-11-13T08:49:35.268Z,68.819
2018-11-13T08:49:51.617Z,68.787
2018-11-13T08:50:08.345Z,68.765
2018-11-13T08:50:25.175Z,68.776
2018-11-13T08:50:41.967Z,68.798
2018-11-13T08:50:58.718Z,68.821
2018-11-13T08:51:15.090Z,68.767
2018-11-13T08:51:31.472Z,68.788
2018-11-13T08:51:47.830Z,68.777
2018-11-13T08:52:04.191Z,68.767
2018-11-13T08:52:20.558Z,68.777
2018-11-13T08:52:36.910Z,68.782
2018-11-13T08:52:53.294Z,68.749
2018-11-13T08:53:09.628Z,68.717
2018-11-13T08:53:25.988Z,68.694
2018-11-13T08:53:42.394Z,68.729
2018-11-13T08:53:58.758Z,68.697
2018-11-13T08:54:15.142Z,68.707
2018-11-13T08:54:31.539Z,68.73
2018-11-13T08:54:47.907Z,68.697
2018-11-13T08:55:04.320Z,68.678
2018-11-13T08:55:20.952Z,68.655
2018-11-13T08:55:37.373Z,68.678
2018-11-13T08:55:53.724Z,68.678
2018-11-13T08:56:10.111Z,68.689
2018-11-13T08:56:26.518Z,68.689
2018-11-13T08:56:42.859Z,68.668
2018-11-13T08:56:59.232Z,68.68
2018-11-13T08:57:15.602Z,68.669
2018-11-13T08:57:32.012Z,68.661
2018-11-13T08:57:48.372Z,68.629
2018-11-13T08:58:04.740Z,68.619
2018-11-13T08:58:21.493Z,68.609
2018-11-13T08:58:38.313Z,68.609
2018-11-13T08:58:55.333Z,68.588
2018-11-13T08:59:12.803Z,68.599
2018-11-13T08:59:30.044Z,68.599
2018-11-13T08:59:46.955Z,68.632
2018-11-13T09:00:03.389Z,68.632
2018-11-13T09:00:19.798Z,68.643
2018-11-13T09:00:36.483Z,68.643
2018-11-13T09:00:52.871Z,68.644
2018-11-13T09:01:09.260Z,68.591
2018-11-13T09:01:25.640Z,68.583
2018-11-13T09:01:42.016Z,68.55
2018-11-13T09:01:58.485Z,68.528
2018-11-13T09:02:14.878Z,68.541
2018-11-13T09:02:31.265Z,68.581
2018-11-13T09:02:47.639Z,68.572
2018-11-13T09:03:04.017Z,68.573
2018-11-13T09:03:20.378Z,68.583
2018-11-13T09:03:36.772Z,68.617
2018-11-13T09:03:53.131Z,68.596
2018-11-13T09:04:09.478Z,68.586
2018-11-13T09:04:25.832Z,68.599
2018-11-13T09:04:42.207Z,68.556
2018-11-13T09:04:58.739Z,68.567
2018-11-13T09:05:15.905Z,68.567
2018-11-13T09:05:32.864Z,68.587
2018-11-13T09:05:49.509Z,68.642
2018-11-13T09:06:05.869Z,68.644
2018-11-13T09:06:22.236Z,68.602
2018-11-13T09:06:38.599Z,68.579
2018-11-13T09:06:54.970Z,68.581
2018-11-13T09:07:11.330Z,68.581
2018-11-13T09:07:27.711Z,68.579
2018-11-13T09:07:44.117Z,68.57
2018-11-13T09:08:00.484Z,68.516
2018-11-13T09:08:16.874Z,68.527
2018-11-13T09:08:33.302Z,68.519
2018-11-13T09:08:49.654Z,68.508
2018-11-13T09:09:06.019Z,68.487
2018-11-13T09:09:22.371Z,68.487
2018-11-13T09:09:38.740Z,68.508
2018-11-13T09:09:55.123Z,68.562
2018-11-13T09:10:11.539Z,68.562
2018-11-13T09:10:28.057Z,68.531
2018-11-13T09:10:44.459Z,68.595
2018-11-13T09:11:01.082Z,68.562
2018-11-13T09:11:17.645Z,68.54
2018-11-13T09:11:34.542Z,68.574
2018-11-13T09:11:51.559Z,68.595
2018-11-13T09:12:08.809Z,68.585
2018-11-13T09:12:25.813Z,68.562
2018-11-13T09:12:42.787Z,68.596
2018-11-13T09:12:59.213Z,68.576
2018-11-13T09:13:15.595Z,68.554
2018-11-13T09:13:32.287Z,68.532
2018-11-13T09:13:48.663Z,68.532
2018-11-13T09:14:05.032Z,68.535
2018-11-13T09:14:21.415Z,68.535
2018-11-13T09:14:37.803Z,68.524
2018-11-13T09:14:54.187Z,68.536
2018-11-13T09:15:10.575Z,68.504
2018-11-13T09:15:26.962Z,68.536
2018-11-13T09:15:43.354Z,68.505
2018-11-13T09:15:59.711Z,68.56
2018-11-13T09:16:16.329Z,68.496
2018-11-13T09:16:32.725Z,68.582
2018-11-13T09:16:49.120Z,68.569
2018-11-13T09:17:05.495Z,68.569
2018-11-13T09:17:21.885Z,68.593
2018-11-13T09:17:38.267Z,68.507
2018-11-13T09:17:54.780Z,68.562
2018-11-13T09:18:11.294Z,68.53
2018-11-13T09:18:27.755Z,68.53
2018-11-13T09:18:44.550Z,68.488
2018-11-13T09:19:01.617Z,68.522
2018-11-13T09:19:19.250Z,68.521
2018-11-13T09:19:37.581Z,68.564
2018-11-13T09:19:55.157Z,68.541
2018-11-13T09:20:11.569Z,68.555
2018-11-13T09:20:27.947Z,68.5
2018-11-13T09:20:44.328Z,68.575
2018-11-13T09:21:00.716Z,68.586
2018-11-13T09:21:17.362Z,68.531
2018-11-13T09:21:33.729Z,68.522
2018-11-13T09:21:50.260Z,68.513
2018-11-13T09:22:06.828Z,68.5
2018-11-13T09:22:23.207Z,68.565
2018-11-13T09:22:39.740Z,68.534
2018-11-13T09:22:56.426Z,68.567
2018-11-13T09:23:12.812Z,68.576
2018-11-13T09:23:29.214Z,68.587
2018-11-13T09:23:45.583Z,68.589
2018-11-13T09:24:02.012Z,68.536
2018-11-13T09:24:18.397Z,68.525
2018-11-13T09:24:36.809Z,68.568
2018-11-13T09:24:55.168Z,68.61
2018-11-13T09:25:13.532Z,68.642
2018-11-13T09:25:31.899Z,68.652
2018-11-13T09:25:50.277Z,68.631
2018-11-13T09:26:08.645Z,68.665
2018-11-13T09:26:27.286Z,68.633
2018-11-13T09:26:45.642Z,68.623
2018-11-13T09:27:04.091Z,68.581
2018-11-13T09:27:22.458Z,68.56
2018-11-13T09:27:40.822Z,68.526
2018-11-13T09:27:59.210Z,68.579
2018-11-13T09:28:17.563Z,68.592
2018-11-13T09:28:36.170Z,68.602
2018-11-13T09:28:54.520Z,68.592
2018-11-13T09:29:12.863Z,68.56
2018-11-13T09:29:31.229Z,68.592
2018-11-13T09:29:49.839Z,68.568
2018-11-13T09:30:09.008Z,68.57
2018-11-13T09:30:28.845Z,68.59
2018-11-13T09:30:49.498Z,68.645
2018-11-13T09:31:09.705Z,68.59
2018-11-13T09:31:29.480Z,68.612
2018-11-13T09:31:48.733Z,68.604
2018-11-13T09:32:07.463Z,68.561
2018-11-13T09:32:25.830Z,68.604
2018-11-13T09:32:44.220Z,68.582
2018-11-13T09:33:02.819Z,68.605
2018-11-13T09:33:21.407Z,68.587
2018-11-13T09:33:40.011Z,68.488
2018-11-13T09:33:58.617Z,68.488
2018-11-13T09:34:16.999Z,68.469
2018-11-13T09:34:35.406Z,68.438
2018-11-13T09:34:53.771Z,68.397
2018-11-13T09:35:12.370Z,68.358
2018-11-13T09:35:31.072Z,68.264
2018-11-13T19:23:32.091Z,75.995
2018-11-13T19:28:35.568Z,71.123
2018-11-13T19:28:51.949Z,65.287
2018-11-13T19:29:08.309Z,59.943
2018-11-13T19:29:24.815Z,60.968
2018-11-13T19:29:41.806Z,62.056
2018-11-13T19:29:58.698Z,63.221
2018-11-13T19:30:15.817Z,64.226
2018-11-13T19:30:32.750Z,65.229
2018-11-13T19:30:49.139Z,66.131
2018-11-13T19:31:05.828Z,66.862
2018-11-13T19:31:22.448Z,67.526
2018-11-13T19:31:38.831Z,68.07
2018-11-13T19:31:55.195Z,68.468
2018-11-13T19:32:11.546Z,68.901
2018-11-13T19:32:27.910Z,69.234
2018-11-13T19:32:44.290Z,69.539
2018-11-13T19:33:00.668Z,69.845
2018-11-13T19:33:17.046Z,70.065
2018-11-13T19:33:33.409Z,70.235
2018-11-13T19:33:50.057Z,70.36
2018-11-13T19:34:06.407Z,70.432
2018-11-13T19:34:22.770Z,70.493
2018-11-13T19:34:39.171Z,70.566
2018-11-13T19:34:55.646Z,70.651
2018-11-13T19:35:12.462Z,70.693
2018-11-13T19:35:29.745Z,70.756
2018-11-13T19:35:47.507Z,70.84
2018-11-13T19:36:05.355Z,70.881
2018-11-13T19:36:23.382Z,70.934
2018-11-13T19:36:40.532Z,70.976
2018-11-13T19:36:57.225Z,71.006
2018-11-13T19:37:13.797Z,71.027
2018-11-13T19:37:30.420Z,71.03
2018-11-13T19:37:46.798Z,71.074
2018-11-13T19:38:03.165Z,71.052
2018-11-13T19:38:19.535Z,71.03
2018-11-13T19:38:36.248Z,71.051
2018-11-13T19:38:53.204Z,71.06
2018-11-13T19:39:09.974Z,71.08
2018-11-13T19:39:26.367Z,71.102
2018-11-13T19:39:42.837Z,71.112
2018-11-13T19:40:00.453Z,71.094
2018-11-13T19:40:18.369Z,71.094
2018-11-13T19:40:34.804Z,71.052
2018-11-13T19:40:51.157Z,71.027
2018-11-13T19:41:07.590Z,71.071
2018-11-13T19:41:23.950Z,71.062
2018-11-13T19:41:40.301Z,71.052
2018-11-13T19:41:56.678Z,71.04
2018-11-13T19:42:13.034Z,71.02
2018-11-13T19:42:29.386Z,71.062
2018-11-13T19:42:45.907Z,71.04
2018-11-13T19:43:02.585Z,71.049
2018-11-13T19:43:19.365Z,71.071
2018-11-13T19:43:35.733Z,71.062
2018-11-13T19:43:52.129Z,71.06
2018-11-13T19:44:08.761Z,71.06
2018-11-13T19:44:25.300Z,71.06
2018-11-13T19:44:42.096Z,71.051
2018-11-13T19:44:58.756Z,71.038
2018-11-13T19:45:15.648Z,71.071
2018-11-13T19:45:32.265Z,71.059
2018-11-13T19:45:48.687Z,71.069
2018-11-13T19:46:05.068Z,71.09
2018-11-13T19:46:21.448Z,71.099
2018-11-13T19:46:37.818Z,71.099
2018-11-13T19:46:54.161Z,71.077
2018-11-13T19:47:10.546Z,71.119
2018-11-13T19:47:26.908Z,71.119
2018-11-13T19:47:43.272Z,71.13
2018-11-13T19:47:59.678Z,71.121
2018-11-13T19:48:16.075Z,71.077
2018-11-13T19:48:32.433Z,71.077
2018-11-13T19:48:48.776Z,71.067
2018-11-13T19:49:05.318Z,71.024
2018-11-13T19:49:23.705Z,70.994
2018-11-13T19:49:41.714Z,70.972
2018-11-13T19:49:58.465Z,71.004
2018-11-13T19:50:14.849Z,71.004
2018-11-13T19:50:31.260Z,71.015
2018-11-13T19:50:47.649Z,71.033
2018-11-13T19:51:04.035Z,71.025
2018-11-13T19:51:20.590Z,71.004
2018-11-13T19:51:37.355Z,70.973
2018-11-13T19:51:54.335Z,70.972
2018-11-13T19:52:10.702Z,70.993
2018-11-13T19:52:27.079Z,70.982
2018-11-13T19:52:43.450Z,70.952
2018-11-13T19:52:59.864Z,70.94
2018-11-13T19:53:16.346Z,70.949
2018-11-13T19:53:32.937Z,70.982
2018-11-13T19:53:49.928Z,70.972
2018-11-13T19:54:06.444Z,70.97
2018-11-13T19:54:23.122Z,70.99
2018-11-13T19:54:39.729Z,70.99
2018-11-13T19:54:56.303Z,71.011
2018-11-13T19:55:12.704Z,71.033
2018-11-13T19:55:29.102Z,71.022
2018-11-13T19:55:45.472Z,71.003
2018-11-13T19:56:01.839Z,70.97
2018-11-13T19:56:18.210Z,70.979
2018-11-13T19:56:34.584Z,70.968
2018-11-13T19:56:50.954Z,70.968
2018-11-13T19:57:07.336Z,70.98
2018-11-13T19:57:23.851Z,70.979
2018-11-13T19:57:40.755Z,70.946
2018-11-13T19:57:58.002Z,70.988
2018-11-13T19:58:14.554Z,70.988
2018-11-13T19:58:30.890Z,71.001
2018-11-13T19:58:47.245Z,70.979
2018-11-13T19:59:03.596Z,70.999
2018-11-13T19:59:19.964Z,71.021
2018-11-13T19:59:36.988Z,70.988
2018-11-13T19:59:53.353Z,70.979
2018-11-13T20:00:09.716Z,71.02
2018-11-13T20:00:26.114Z,71.02
2018-11-13T20:00:42.579Z,70.979
2018-11-13T20:00:59.709Z,70.978
2018-11-13T20:01:16.545Z,70.977
2018-11-13T20:01:32.976Z,70.987
2018-11-13T20:01:49.353Z,70.996
2018-11-13T20:02:05.710Z,71.029
2018-11-13T20:02:22.093Z,71.02
2018-11-13T20:02:38.459Z,70.978
2018-11-13T20:02:54.854Z,70.945
2018-11-13T20:03:11.252Z,70.945
2018-11-13T20:03:27.656Z,70.936
2018-11-13T20:03:44.042Z,70.945
2018-11-13T20:04:00.573Z,70.953
2018-11-13T20:04:17.850Z,70.975
2018-11-13T20:04:34.961Z,70.954
2018-11-13T20:04:52.315Z,70.965
2018-11-13T20:05:09.103Z,70.967
2018-11-13T20:05:25.454Z,70.943
2018-11-13T20:05:41.828Z,70.956
2018-11-13T20:05:58.168Z,70.914
2018-11-13T20:06:14.533Z,70.923
2018-11-13T20:06:30.892Z,70.923
2018-11-13T20:06:47.278Z,70.901
2018-11-13T20:07:03.694Z,70.925
2018-11-13T20:07:20.079Z,70.892
2018-11-13T20:07:36.633Z,70.852
2018-11-13T20:07:53.023Z,70.86
2018-11-13T20:08:09.399Z,70.839
2018-11-13T20:08:25.813Z,70.859
2018-11-13T20:08:42.185Z,70.891
2018-11-13T20:08:58.844Z,70.889
2018-11-13T20:09:15.212Z,70.923
2018-11-13T20:09:31.568Z,70.892
2018-11-13T20:09:47.967Z,70.849
2018-11-13T20:10:04.611Z,70.849
2018-11-13T20:10:21.416Z,70.839
2018-11-13T20:10:38.045Z,70.817
2018-11-13T20:10:54.408Z,70.808
2018-11-13T20:11:10.781Z,70.808
2018-11-13T20:11:27.157Z,70.744
2018-11-13T20:11:43.516Z,70.723
2018-11-13T20:11:59.911Z,70.753
2018-11-13T20:12:16.294Z,70.765
2018-11-13T20:12:32.686Z,70.784
2018-11-13T20:12:49.038Z,70.773
2018-11-13T20:13:05.423Z,70.786
2018-11-13T20:13:21.806Z,70.775
2018-11-13T20:13:38.183Z,70.765
2018-11-13T20:13:54.576Z,70.731
2018-11-13T20:14:10.974Z,70.755
2018-11-13T20:14:27.318Z,70.723
2018-11-13T20:14:43.662Z,70.703
2018-11-13T20:15:00.179Z,70.691
2018-11-13T20:15:16.846Z,70.699
2018-11-13T20:15:33.248Z,70.71
2018-11-13T20:15:49.773Z,70.741
2018-11-13T20:16:06.822Z,70.783
2018-11-13T20:16:23.560Z,70.794
2018-11-13T20:16:39.930Z,70.814
2018-11-13T20:16:56.332Z,70.805
2018-11-13T20:17:12.722Z,70.814
2018-11-13T20:17:29.072Z,70.846
2018-11-13T20:17:45.453Z,70.846
2018-11-13T20:18:01.843Z,70.825
2018-11-13T20:18:18.257Z,70.783
2018-11-13T20:18:34.619Z,70.815
2018-11-13T20:18:50.997Z,70.815
2018-11-13T20:19:07.352Z,70.794
2018-11-13T20:19:23.729Z,70.783
2018-11-13T20:19:40.084Z,70.812
2018-11-13T20:19:56.461Z,70.804
2018-11-13T20:20:12.836Z,70.822
2018-11-13T20:20:33.759Z,70.866
2018-11-13T20:20:50.145Z,70.835
2018-11-13T20:21:06.545Z,70.814
2018-11-13T20:21:22.977Z,70.771
2018-11-13T20:21:39.828Z,70.783
2018-11-13T20:21:56.603Z,70.772
2018-11-13T20:22:12.968Z,70.76
2018-11-13T20:22:30.617Z,70.771
2018-11-13T20:22:47.158Z,70.791
2018-11-13T20:23:03.551Z,70.802
2018-11-13T20:23:20.129Z,70.794
2018-11-13T20:23:37.731Z,70.762
2018-11-13T20:23:54.104Z,70.825
2018-11-13T20:24:10.764Z,70.762
2018-11-13T20:24:27.314Z,69.847
2018-11-13T20:24:44.382Z,67.769
2018-11-13T20:25:01.212Z,65.785
2018-11-13T20:25:17.570Z,65.989
2018-11-13T20:25:34.200Z,65.321
2018-11-13T20:25:50.768Z,65.445
2018-11-13T20:26:07.136Z,64.528
2018-11-13T20:26:23.502Z,65.759
2018-11-13T20:26:39.861Z,64.337
2018-11-13T20:26:56.307Z,64.465
2018-11-13T20:27:12.771Z,65.49
2018-11-13T20:27:29.157Z,65.52
2018-11-13T20:27:45.523Z,65.243
2018-11-13T20:28:01.899Z,64.754
2018-11-13T20:28:18.294Z,65.125
2018-11-13T20:28:34.673Z,64.849
2018-11-13T20:28:51.026Z,64.409
2018-11-13T20:29:07.404Z,63.99
2018-11-13T20:29:23.840Z,63.352
2018-11-13T20:29:40.201Z,63.256
2018-11-13T20:29:56.594Z,62.612
2018-11-13T20:30:12.979Z,61.941
2018-11-13T20:30:29.432Z,61.978
2018-11-13T20:30:46.200Z,61.891
2018-11-13T20:31:03.312Z,61.175
2018-11-13T20:31:20.669Z,61.54
2018-11-13T20:31:37.333Z,61.603
2018-11-13T20:31:53.718Z,61.445
2018-11-13T20:32:10.093Z,60.971
2018-11-13T20:32:26.463Z,61.456
2018-11-13T20:32:42.840Z,61.105
2018-11-13T20:32:59.200Z,60.798
2018-11-13T20:33:15.573Z,60.82
2018-11-13T20:33:31.974Z,59.89
2018-11-13T20:33:48.342Z,59.899
2018-11-13T20:34:04.684Z,60.067
2018-11-13T20:34:21.075Z,59.22
2018-11-13T20:34:37.468Z,59.771
2018-11-13T20:34:53.824Z,59.386
2018-11-13T20:35:10.200Z,59.153
2018-11-13T20:35:26.564Z,58.835
2018-11-13T20:35:42.918Z,59.104
2018-11-13T20:35:59.569Z,58.776
2018-11-13T20:36:15.948Z,58.097
2018-11-13T20:36:32.322Z,58.521
2018-11-13T20:36:48.733Z,58.802
2018-11-13T20:37:05.092Z,58.118
2018-11-13T20:37:21.563Z,58.193
2018-11-13T20:37:38.727Z,57.964
2018-11-13T20:37:55.527Z,57.575
2018-11-13T20:38:11.930Z,57.99
2018-11-13T20:38:28.331Z,57.783
2018-11-13T20:38:44.758Z,57.752
2018-11-13T20:39:01.124Z,57.598
2018-11-13T20:39:17.751Z,57.238
2018-11-13T20:39:34.095Z,57.423
2018-11-13T20:39:50.732Z,57.29
2018-11-13T20:40:07.098Z,56.929
2018-11-13T20:40:23.483Z,56.862
2018-11-13T20:40:39.870Z,56.96
2018-11-13T20:40:56.226Z,56.706
2018-11-13T20:41:12.852Z,56.837
2018-11-13T20:41:29.236Z,56.661
2018-11-13T20:41:45.579Z,56.517
2018-11-13T20:42:01.981Z,56.263
2018-11-13T20:42:18.364Z,56.309
2018-11-13T20:42:34.722Z,56.12
2018-11-13T20:42:51.083Z,56.053
2018-11-13T20:43:07.476Z,55.951
2018-11-13T20:43:24.458Z,55.939
2018-11-13T20:43:41.618Z,56.005
2018-11-13T20:43:58.381Z,55.732
2018-11-13T20:44:14.755Z,55.909
2018-11-13T20:44:31.223Z,55.457
2018-11-13T20:44:48.016Z,55.771
2018-11-13T20:45:05.091Z,55.609
2018-11-13T20:45:21.471Z,55.497
2018-11-13T20:45:37.832Z,55.548
2018-11-13T20:45:54.220Z,55.468
2018-11-13T20:46:10.616Z,55.345
2018-11-13T20:46:27.266Z,55.527
2018-11-13T20:46:43.661Z,55.288
2018-11-13T20:47:00.059Z,55.318
2018-11-13T20:47:16.465Z,55.806
2018-11-13T20:47:32.825Z,56.132
2018-11-13T20:47:49.200Z,55.893
2018-11-13T20:48:05.577Z,55.697
2018-11-13T20:48:21.952Z,55.674
2018-11-13T20:48:38.340Z,55.588
2018-11-13T20:48:54.701Z,55.773
2018-11-13T20:49:11.103Z,55.653
2018-11-13T20:49:27.486Z,55.917
2018-11-13T20:49:43.848Z,56.134
2018-11-13T20:50:00.275Z,55.99
2018-11-13T20:50:16.782Z,55.99
2018-11-13T20:50:33.240Z,55.758
2018-11-13T20:50:49.618Z,56.051
2018-11-13T20:51:05.978Z,55.634
2018-11-13T20:51:22.496Z,55.519
2018-11-13T20:51:39.743Z,56.619
2018-11-13T20:51:56.522Z,56.045
2018-11-13T20:52:12.877Z,55.884
2018-11-13T20:52:29.313Z,55.778
2018-11-13T20:52:45.678Z,55.954
2018-11-13T20:53:02.067Z,56.484
2018-11-13T20:53:18.469Z,57.746
2018-11-13T20:53:34.852Z,57.421
2018-11-13T20:53:51.214Z,56.791
2018-11-13T20:54:07.579Z,57.536
2018-11-13T20:54:24.217Z,57.377
2018-11-13T20:54:40.626Z,57.729
2018-11-13T20:54:56.987Z,57.283
2018-11-13T20:55:13.373Z,57.91
2018-11-13T20:55:29.730Z,58.106
2018-11-13T20:55:46.096Z,57.629
2018-11-13T20:56:02.477Z,57.911
2018-11-13T20:56:18.837Z,58.338
2018-11-13T20:56:35.212Z,58.251
2018-11-13T20:56:51.879Z,57.924
2018-11-13T20:57:08.291Z,58.063
2018-11-13T20:57:24.669Z,58.106
2018-11-13T20:57:41.050Z,58.457
2018-11-13T20:57:57.472Z,58.785
2018-11-13T20:58:13.845Z,58.348
2018-11-13T20:58:30.207Z,58.478
2018-11-13T20:58:46.594Z,58.739
2018-11-13T20:59:02.977Z,59.301
2018-11-13T20:59:19.351Z,58.998
2018-11-13T20:59:35.700Z,59.457
2018-11-13T20:59:52.092Z,59.122
2018-11-13T21:00:08.445Z,59.002
2018-11-13T21:00:24.805Z,59.057
2018-11-13T21:00:41.155Z,59.229
2018-11-13T21:00:57.516Z,59.438
2018-11-13T21:01:13.892Z,59.349
2018-11-13T21:01:30.293Z,59.457
2018-11-13T21:01:46.814Z,59.511
2018-11-13T21:02:04.251Z,59.642
2018-11-13T21:02:21.238Z,59.719
2018-11-13T21:02:38.335Z,59.772
2018-11-13T21:02:55.378Z,59.838
2018-11-13T21:03:11.819Z,59.872
2018-11-13T21:03:28.223Z,60.123